KTWF

Joslin Field - Magic Valley Regional Airport

Twin Falls, Idaho, USA
KTWF 171120Z 1712/1812 VRB05KT P6SM OVC100 FM171800 VRB05KT P6SM VCSH OVC040 FM172200 20006KT P6SM BKN100
Issued Valid From Valid To
Dec-17 @ 11:20 UTC
(2 hours ago)
Dec-17 @ 12:00 UTC
(58 minutes ago)
Dec-18 @ 12:00 UTC
(in 23 hours)
Dec-17 @ 12:00 to Dec-17 @ 18:00
KTWF 171120Z 1712/1812 VRB05KT P6SM OVC100
Wind Visibility Clouds
Variable at 5 knots Greater than 6 miles
  • Overcast at 10,000' AGL
From Dec-17 @ 18:00 to Dec-17 @ 22:00
FM171800 VRB05KT P6SM VCSH OVC040
Wind Visibility Clouds
Variable at 5 knots Greater than 6 miles
  • Overcast at 4,000' AGL
From Dec-17 @ 22:00 to Dec-18 @ 12:00
FM172200 20006KT P6SM BKN100
Wind Visibility Clouds
200° at 6 knots Greater than 6 miles
  • Broken at 10,000' AGL
KTWF 171120Z 1712/1812 VRB05KT P6SM OVC100 FM171800 VRB05KT P6SM VCSH OVC040 FM172200 20006KT P6SM BKN100
Issued Dec-17 @ 11:20 UTC
(2 hours ago)
Valid From Dec-17 @ 12:00 UTC
(58 minutes ago)
Valid To Dec-18 @ 12:00 UTC
(in 23 hours)
Dec-17 @ 12:00 - Dec-17 @ 18:00
Wind Visibility
Variable at 5 knots Greater than 6 miles
Clouds
  • Overcast at 10,000' AGL
From Dec-17 @ 18:00 - Dec-17 @ 22:00
Wind Visibility
Variable at 5 knots Greater than 6 miles
Clouds
  • Overcast at 4,000' AGL
From Dec-17 @ 22:00 - Dec-18 @ 12:00
Wind Visibility
200° at 6 knots Greater than 6 miles
Clouds
  • Broken at 10,000' AGL